Time;durP1;ratioP1;P1;durP2;ratioP2;P2;SDS_P1;SDS_P2;PMS_P1;PMS_P2;Temp;Humidity;BMP_temperature;BMP_pressure;BME280_temperature;BME280_humidity;BME280_pressure;Samples;Min_cycle;Max_cycle;Signal;HPM_P1;HPM_P2
2022/08/20 00:02:05;;;;;;;17.08;15.05;;;;;;;19.97;100.00;68989.91;4815902;29;20061;-90
2022/08/20 00:04:30;;;;;;;16.52;14.43;;;;;;;;;;4850403;29;20246;-91
2022/08/20 00:06:56;;;;;;;20.75;15.50;;;;;;;19.93;100.00;68985.34;4911230;29;20154;-91
2022/08/20 00:09:21;;;;;;;16.63;14.80;;;;;;;;;;4911529;29;20079;-89
2022/08/20 00:11:46;;;;;;;17.17;14.27;;;;;;;19.90;100.00;68987.31;4916107;29;20043;-90
2022/08/20 00:14:12;;;;;;;17.20;13.23;;;;;;;19.93;100.00;68985.34;4909647;29;20853;-91
2022/08/20 00:16:38;;;;;;;17.40;15.13;;;;;;;19.86;100.00;68977.34;4896649;29;20131;-90
2022/08/20 00:19:06;;;;;;;17.20;15.23;;;;;;;19.84;100.00;68975.63;4916740;29;20040;-90
2022/08/20 00:21:33;;;;;;;18.20;13.90;;;;;;;19.91;100.00;68983.06;4927909;29;20407;-91
2022/08/20 00:23:58;;;;;;;18.48;15.15;;;;;;;;;;4934585;29;20527;-91
2022/08/20 00:26:24;;;;;;;20.05;14.98;;;;;;;19.84;100.00;68975.63;4909589;29;20139;-90
2022/08/20 00:28:50;;;;;;;18.13;14.77;;;;;;;19.82;100.00;68970.66;4911393;29;20048;-91
2022/08/20 00:31:18;;;;;;;17.27;14.82;;;;;;;19.84;100.00;68975.06;4917141;29;20072;-90
2022/08/20 00:33:44;;;;;;;17.58;14.15;;;;;;;19.78;100.00;68968.75;4905172;29;20036;-90
2022/08/20 00:36:11;;;;;;;18.92;15.40;;;;;;;19.72;100.00;68955.94;4912274;29;20040;-91
2022/08/20 00:38:41;;;;;;;16.52;14.73;;;;;;;19.72;100.00;68961.91;4912915;29;20055;-91
2022/08/20 00:41:12;;;;;;;21.25;16.65;;;;;;;19.73;100.00;68962.47;4911044;29;20590;-92
2022/08/20 00:43:43;;;;;;;19.27;16.05;;;;;;;19.75;100.00;68965.34;4919536;29;20079;-89
2022/08/20 00:46:17;;;;;;;18.58;16.40;;;;;;;19.75;100.00;68965.34;4930141;29;20123;-90
2022/08/20 00:48:46;;;;;;;20.50;16.02;;;;;;;;;;4911030;29;20051;-90
2022/08/20 00:51:17;;;;;;;;;;;;;;;19.78;100.00;68968.19;4926722;29;20066;-90
2022/08/20 00:53:43;;;;;;;20.48;17.15;;;;;;;19.69;100.00;68963.88;4930380;29;19925;-90
2022/08/20 00:56:11;;;;;;;19.70;17.50;;;;;;;19.61;100.00;68949.31;4911787;29;20415;-90
2022/08/20 00:58:38;;;;;;;23.27;17.45;;;;;;;19.61;100.00;68949.88;4892814;29;20052;-90
2022/08/20 01:01:05;;;;;;;18.55;15.43;;;;;;;19.67;100.00;68955.63;4912611;29;20123;-91
2022/08/20 01:03:32;;;;;;;19.25;14.77;;;;;;;19.64;100.00;68960.28;4915886;29;20048;-91
2022/08/20 01:05:57;;;;;;;18.50;14.93;;;;;;;19.68;100.00;68951.34;4930249;29;20526;-91
2022/08/20 01:08:25;;;;;;;18.73;16.27;;;;;;;19.73;100.00;68967.88;4900908;29;20040;-91
2022/08/20 01:11:05;;;;;;;21.02;16.77;;;;;;;19.71;100.00;68960.78;4913401;29;20099;-91
2022/08/20 01:13:33;;;;;;;22.30;16.70;;;;;;;19.70;100.00;68959.06;4913289;29;20590;-91
2022/08/20 01:16:01;;;;;;;20.38;15.90;;;;;;;;;;4927507;29;20065;-91
2022/08/20 01:18:27;;;;;;;21.48;16.58;;;;;;;19.66;100.00;68949.66;4906901;29;20049;-91
2022/08/20 01:20:59;;;;;;;19.90;16.92;;;;;;;19.64;100.00;68952.19;4911618;29;20045;-91
2022/08/20 01:23:28;;;;;;;19.70;17.15;;;;;;;;;;4915335;29;20044;-91
2022/08/20 01:26:03;;;;;;;21.52;16.98;;;;;;;19.63;100.00;68951.59;4912839;29;20444;-90
2022/08/20 01:28:38;;;;;;;20.65;16.65;;;;;;;19.61;100.00;68949.88;4914500;29;20040;-90
2022/08/20 01:31:04;;;;;;;22.52;18.13;;;;;;;;;;4919935;29;20115;-91
2022/08/20 01:33:30;;;;;;;22.20;17.55;;;;;;;19.54;100.00;68941.91;4914634;29;20055;-90
2022/08/20 01:35:56;;;;;;;20.80;17.10;;;;;;;19.56;100.00;68944.19;4912800;29;20040;-91
2022/08/20 01:38:22;;;;;;;22.38;17.55;;;;;;;;;;4919930;29;20044;-91
2022/08/20 01:41:02;;;;;;;22.58;17.58;;;;;;;;;;4916193;29;20048;-91
2022/08/20 01:43:27;;;;;;;21.98;17.60;;;;;;;;;;4918915;29;20048;-91
2022/08/20 01:45:53;;;;;;;22.57;17.97;;;;;;;19.52;100.00;68939.59;4910969;29;20503;-92
2022/08/20 01:48:19;;;;;;;24.10;18.55;;;;;;;;;;4917631;29;20405;-91
2022/08/20 01:50:54;;;;;;;25.63;19.92;;;;;;;19.49;100.00;68936.19;4912453;29;20133;-91
2022/08/20 01:53:24;;;;;;;22.95;20.15;;;;;;;;;;4897948;29;20048;-90
2022/08/20 01:55:49;;;;;;;24.88;18.10;;;;;;;;;;4911921;29;20052;-92
2022/08/20 01:58:14;;;;;;;22.35;19.17;;;;;;;19.41;100.00;68926.47;4914053;29;20051;-90
2022/08/20 02:00:40;;;;;;;26.73;17.58;;;;;;;19.41;100.00;68926.47;4912577;29;20072;-91
2022/08/20 02:03:07;;;;;;;23.45;18.67;;;;;;;19.42;100.00;68928.19;4917145;29;20067;-92
2022/08/20 02:05:33;;;;;;;23.05;17.15;;;;;;;19.42;100.00;68933.59;4918449;29;20127;-91
2022/08/20 02:07:59;;;;;;;24.15;18.20;;;;;;;;;;4914142;29;20452;-90
2022/08/20 02:10:24;;;;;;;28.52;20.55;;;;;;;;;;4922693;29;20044;-91
2022/08/20 02:12:49;;;;;;;24.65;18.52;;;;;;;19.38;100.00;68923.59;4907465;29;20040;-91
2022/08/20 02:15:15;;;;;;;25.55;18.95;;;;;;;;;;4913212;29;20557;-91
2022/08/20 02:17:41;;;;;;;26.70;20.88;;;;;;;19.34;100.00;68919.03;4925519;29;20141;-91
2022/08/20 02:20:09;;;;;;;25.20;18.75;;;;;;;19.35;100.00;68926.16;4919297;29;20099;-91
2022/08/20 02:22:38;;;;;;;23.93;19.10;;;;;;;;;;4914847;29;20103;-91
2022/08/20 02:25:06;;;;;;;25.42;19.15;;;;;;;19.29;100.00;68919.28;4908183;29;20040;-91
2022/08/20 02:27:32;;;;;;;27.77;20.02;;;;;;;19.32;100.00;68917.31;4913860;29;20384;-91
2022/08/20 02:29:57;;;;;;;30.38;18.55;;;;;;;19.26;100.00;68915.88;4915101;29;20098;-91
2022/08/20 02:32:23;;;;;;;25.65;17.85;;;;;;;19.25;100.00;68914.13;4917804;29;20313;-90
2022/08/20 02:34:48;;;;;;;27.63;19.65;;;;;;;19.17;100.00;68900.75;4930489;29;20031;-91
2022/08/20 02:37:15;;;;;;;25.05;19.30;;;;;;;19.22;100.00;68905.91;4936296;29;20040;-91
2022/08/20 02:39:41;;;;;;;27.73;19.90;;;;;;;19.18;100.00;68901.31;4932383;29;20052;-92
2022/08/20 02:42:08;;;;;;;29.65;19.58;;;;;;;19.13;100.00;68893.50;4934242;29;20039;-91
2022/08/20 02:44:34;;;;;;;28.80;19.80;;;;;;;19.10;100.00;68898.16;4915139;29;20048;-92
2022/08/20 02:46:59;;;;;;;26.95;18.08;;;;;;;;;;4915711;29;20043;-91
2022/08/20 02:49:25;;;;;;;26.52;19.00;;;;;;;19.08;100.00;68890.47;4908122;29;20044;-89
2022/08/20 02:51:50;;;;;;;28.85;20.75;;;;;;;19.20;100.00;68903.63;4928408;29;20210;-90
2022/08/20 02:54:16;;;;;;;27.48;20.65;;;;;;;19.19;100.00;68907.28;4910116;29;20417;-90
2022/08/20 02:56:42;;;;;;;26.48;18.92;;;;;;;19.17;100.00;68906.16;4925078;29;20112;-91
2022/08/20 02:59:08;;;;;;;26.67;20.27;;;;;;;19.13;100.00;68895.59;4897729;29;20043;-91
2022/08/20 03:01:33;;;;;;;27.75;20.15;;;;;;;19.20;100.00;68903.03;4917599;29;20043;-90
2022/08/20 03:03:59;;;;;;;25.83;19.65;;;;;;;19.20;100.00;68911.16;4930070;29;20047;-90
2022/08/20 03:06:25;;;;;;;28.88;21.15;;;;;;;;;;4914243;29;20104;-91
2022/08/20 03:08:50;;;;;;;27.13;19.55;;;;;;;19.10;100.00;68892.19;4918100;29;20050;-92
2022/08/20 03:11:16;;;;;;;29.40;20.08;;;;;;;;;;4917164;29;20048;-91
2022/08/20 03:13:42;;;;;;;29.50;22.45;;;;;;;;;;4920358;29;20138;-90
2022/08/20 03:16:08;;;;;;;30.08;20.00;;;;;;;;;;4918974;29;20605;-90
2022/08/20 03:18:35;;;;;;;29.48;20.52;;;;;;;;;;4935270;29;20131;-89
2022/08/20 03:21:02;;;;;;;26.60;20.73;;;;;;;19.10;100.00;68892.78;4902952;29;20044;-92
2022/08/20 03:23:27;;;;;;;29.58;21.45;;;;;;;19.04;100.00;68883.19;4913980;29;20044;-90
2022/08/20 03:25:53;;;;;;;31.52;21.88;;;;;;;;;;4919975;29;20135;-91
2022/08/20 03:28:18;;;;;;;29.13;21.08;;;;;;;;;;4894178;29;20500;-91
2022/08/20 03:30:44;;;;;;;31.55;22.25;;;;;;;18.94;100.00;68880.44;4910729;29;20044;-90
2022/08/20 03:33:10;;;;;;;27.75;21.23;;;;;;;;;;4908151;29;20055;-90
2022/08/20 03:35:35;;;;;;;32.40;23.05;;;;;;;18.97;100.00;68877.34;4909921;29;20071;-90
2022/08/20 03:38:06;;;;;;;28.67;22.02;;;;;;;18.86;100.00;68863.22;4905015;29;20139;-91
2022/08/20 03:40:32;;;;;;;31.20;23.20;;;;;;;;;;4913359;29;20361;-90
2022/08/20 03:42:58;;;;;;;29.92;21.95;;;;;;;18.82;100.00;68866.19;4909862;29;20139;-90
2022/08/20 03:45:24;;;;;;;30.27;21.95;;;;;;;;;;4911136;29;20048;-90
2022/08/20 03:47:51;;;;;;;29.88;23.92;;;;;;;18.79;100.00;68857.34;4917063;29;20059;-90
2022/08/20 03:50:17;;;;;;;25.10;18.80;;;;;;;;;;4903218;29;20118;-90
2022/08/20 03:52:42;;;;;;;28.83;21.35;;;;;;;;;;4916348;29;20044;-90
2022/08/20 03:55:08;;;;;;;25.63;19.27;;;;;;;;;;4911766;29;20036;-90
2022/08/20 03:57:34;;;;;;;21.00;16.55;;;;;;;18.68;100.00;68845.34;4921071;29;20300;-91
2022/08/20 04:00:00;;;;;;;23.63;17.75;;;;;;;;;;4911914;29;20416;-90
2022/08/20 04:02:26;;;;;;;19.33;14.85;;;;;;;18.64;100.00;68841.34;4912589;29;20055;-90
2022/08/20 04:04:53;;;;;;;19.20;14.15;;;;;;;18.67;100.00;68844.78;4915828;29;20048;-91
2022/08/20 04:07:24;;;;;;;17.30;14.02;;;;;;;;;;4913043;29;20407;-90
2022/08/20 04:09:51;;;;;;;17.73;13.38;;;;;;;18.86;100.00;68865.91;4912527;29;20051;-90
2022/08/20 04:12:17;;;;;;;16.52;12.60;;;;;;;18.86;100.00;68865.34;4915168;29;20048;-90
2022/08/20 04:14:42;;;;;;;14.80;11.52;;;;;;;;;;4909472;29;20036;-90
2022/08/20 04:17:10;;;;;;;14.25;11.85;;;;;;;18.78;100.00;68861.59;4912683;29;20475;-91
2022/08/20 04:19:37;;;;;;;14.80;12.00;;;;;;;18.70;100.00;68853.59;4915989;29;20064;-91
2022/08/20 04:22:03;;;;;;;12.75;10.25;;;;;;;;;;4909767;29;20080;-91
2022/08/20 04:24:28;;;;;;;11.00;9.05;;;;;;;18.63;100.00;68845.03;4913420;29;20048;-92
2022/08/20 04:26:54;;;;;;;11.48;8.48;;;;;;;18.70;100.00;68848.19;4929267;29;20048;-91
2022/08/20 04:29:24;;;;;;;10.48;7.95;;;;;;;;;;4924142;23;20048;-77
2022/08/20 04:31:51;;;;;;;9.82;8.05;;;;;;;18.67;100.00;68852.88;4911662;29;20412;-77
2022/08/20 04:34:18;;;;;;;8.98;7.47;;;;;;;18.69;100.00;68851.88;4912421;28;20136;-77
2022/08/20 04:36:48;;;;;;;8.90;7.40;;;;;;;18.70;100.00;68848.19;4920141;29;20063;-78
2022/08/20 04:39:14;;;;;;;9.40;7.50;;;;;;;18.69;100.00;68847.03;4911350;29;20047;-77
2022/08/20 04:41:41;;;;;;;10.63;7.53;;;;;;;18.67;100.00;68850.16;4920475;28;20052;-78
2022/08/20 04:44:07;;;;;;;10.05;7.53;;;;;;;18.63;100.00;68839.63;4926764;28;20066;-77
2022/08/20 04:46:33;;;;;;;10.70;7.15;;;;;;;18.49;100.00;68822.09;4928622;29;20043;-77
2022/08/20 04:49:02;;;;;;;10.52;7.80;;;;;;;18.59;100.00;68835.06;4926130;29;20048;-77
2022/08/20 04:51:27;;;;;;;9.65;7.22;;;;;;;;;;4924748;29;20071;-77
2022/08/20 04:53:53;;;;;;;10.00;8.00;;;;;;;18.44;100.00;68818.50;4923340;29;20082;-77
2022/08/20 04:56:24;;;;;;;9.57;8.00;;;;;;;18.39;100.00;68812.81;4929341;29;20475;-78
2022/08/20 04:58:51;;;;;;;11.32;7.72;;;;;;;18.43;100.00;68817.94;4930147;28;20079;-77
2022/08/20 05:01:16;;;;;;;10.18;8.02;;;;;;;;;;4926478;29;20459;-78
2022/08/20 05:03:42;;;;;;;10.18;8.25;;;;;;;;;;4927280;29;20039;-78
2022/08/20 05:06:10;;;;;;;11.05;8.13;;;;;;;18.37;100.00;68810.50;4917395;29;20051;-77
2022/08/20 05:08:37;;;;;;;9.90;8.90;;;;;;;18.44;100.00;68818.50;4920029;29;20071;-77
2022/08/20 05:11:04;;;;;;;11.25;9.77;;;;;;;18.42;100.00;68816.78;4930070;29;20067;-77
2022/08/20 05:13:29;;;;;;;13.57;9.30;;;;;;;18.49;100.00;68824.78;4928874;28;20541;-77
2022/08/20 05:15:56;;;;;;;12.48;9.15;;;;;;;18.52;100.00;68827.63;4925926;29;20146;-77
2022/08/20 05:18:24;;;;;;;14.02;11.05;;;;;;;18.44;100.00;68818.50;4925559;29;20043;-78
2022/08/20 05:20:50;;;;;;;12.50;10.63;;;;;;;18.42;100.00;68816.22;4929145;29;20058;-78
2022/08/20 05:23:17;;;;;;;14.10;11.60;;;;;;;;;;4924275;29;20055;-77
2022/08/20 05:25:43;;;;;;;14.43;10.20;;;;;;;;;;4925578;29;20047;-76
2022/08/20 05:28:15;;;;;;;12.20;9.70;;;;;;;18.39;100.00;68813.38;4921907;29;20036;-78
2022/08/20 05:30:42;;;;;;;10.50;7.80;;;;;;;;;;4944423;29;20078;-77
2022/08/20 05:33:08;;;;;;;10.32;7.65;;;;;;;;;;4927759;28;20539;-77
2022/08/20 05:35:37;;;;;;;10.18;8.93;;;;;;;;;;4927650;29;20491;-78
2022/08/20 05:38:03;;;;;;;9.07;7.60;;;;;;;18.55;100.00;68831.06;4936509;29;20063;-77
2022/08/20 05:40:29;;;;;;;10.30;9.05;;;;;;;18.52;100.00;68827.63;4918699;28;20431;-77
2022/08/20 05:42:54;;;;;;;12.93;8.95;;;;;;;;;;4921388;29;20044;-76
2022/08/20 05:45:20;;;;;;;11.07;8.20;;;;;;;18.67;100.00;68844.78;4928675;29;20044;-77
2022/08/20 05:47:47;;;;;;;11.07;9.65;;;;;;;18.71;100.00;68854.72;4926249;29;20040;-76
2022/08/20 05:50:13;;;;;;;14.13;10.02;;;;;;;;;;4928998;29;20571;-77
2022/08/20 05:52:39;;;;;;;11.00;9.80;;;;;;;18.77;100.00;68852.94;4922408;29;20491;-76
2022/08/20 05:55:05;;;;;;;13.30;10.98;;;;;;;;;;4920660;28;20050;-77
2022/08/20 05:57:30;;;;;;;14.82;11.95;;;;;;;18.89;100.00;68868.78;4925504;29;20051;-76
2022/08/20 05:59:58;;;;;;;13.00;11.15;;;;;;;19.00;100.00;68878.06;4920510;29;20506;-77
2022/08/20 06:05:07;;;;;;;17.77;14.73;;;;;;;19.02;100.00;68883.63;4927884;29;20530;-77
2022/08/20 06:07:33;;;;;;;19.00;14.43;;;;;;;19.12;100.00;68894.47;4928960;28;20134;-77
2022/08/20 06:09:59;;;;;;;19.27;15.23;;;;;;;19.20;100.00;68900.34;4920998;29;20036;-76
2022/08/20 06:12:24;;;;;;;18.38;14.43;;;;;;;19.18;100.00;68901.31;4927919;29;20055;-77
2022/08/20 06:14:50;;;;;;;19.95;15.02;;;;;;;19.14;100.00;68894.63;4929400;29;20447;-77
2022/08/20 06:17:16;;;;;;;20.92;16.33;;;;;;;;;;4931399;29;20042;-76
2022/08/20 06:19:43;;;;;;;18.30;15.25;;;;;;;19.01;100.00;68887.88;4932454;29;20046;-77
2022/08/20 06:22:09;;;;;;;21.02;16.98;;;;;;;18.96;100.00;68873.50;4931214;29;20131;-77
2022/08/20 06:24:34;;;;;;;21.27;16.67;;;;;;;18.89;100.00;68866.06;4929154;29;20123;-76
2022/08/20 06:27:01;;;;;;;19.75;15.75;;;;;;;;;;4921317;29;20701;-77
2022/08/20 06:29:27;;;;;;;19.00;15.77;;;;;;;18.91;100.00;68871.06;4947502;29;20551;-77
2022/08/20 06:31:52;;;;;;;19.80;16.25;;;;;;;;;;4947550;29;20458;-76
2022/08/20 06:34:18;;;;;;;18.92;14.65;;;;;;;;;;4943448;29;20063;-77
2022/08/20 06:36:47;;;;;;;20.05;15.52;;;;;;;18.93;100.00;68873.34;4940398;29;20623;-77
2022/08/20 06:39:14;;;;;;;19.23;14.45;;;;;;;18.90;100.00;68867.22;4936313;29;20483;-77
2022/08/20 06:41:40;;;;;;;17.77;13.73;;;;;;;;;;4933282;29;20047;-77
2022/08/20 06:44:06;;;;;;;20.50;16.38;;;;;;;18.82;100.00;68860.78;4934919;29;20050;-78
2022/08/20 06:46:32;;;;;;;21.20;16.50;;;;;;;18.81;100.00;68860.19;4943618;29;20609;-77
2022/08/20 06:48:58;;;;;;;19.25;15.48;;;;;;;;;;4944928;29;20051;-77
2022/08/20 06:51:23;;;;;;;25.05;18.60;;;;;;;;;;4941240;29;20032;-77
2022/08/20 06:53:48;;;;;;;23.02;17.30;;;;;;;;;;4929661;29;20079;-77
2022/08/20 06:56:14;;;;;;;22.73;17.35;;;;;;;18.84;100.00;68863.06;4927700;29;20056;-77
2022/08/20 06:58:39;;;;;;;23.73;18.80;;;;;;;18.77;100.00;68852.38;4931793;29;20463;-77
2022/08/20 07:01:07;;;;;;;22.73;18.05;;;;;;;18.76;100.00;68853.91;4930978;28;20047;-77
2022/08/20 07:03:33;;;;;;;21.70;18.13;;;;;;;18.78;100.00;68856.22;4931065;29;20071;-77
2022/08/20 07:05:58;;;;;;;21.92;16.73;;;;;;;18.90;100.00;68867.81;4927184;29;20039;-77
2022/08/20 07:08:24;;;;;;;22.33;18.50;;;;;;;18.87;100.00;68866.47;4932909;29;20052;-76
2022/08/20 07:10:50;;;;;;;23.45;19.15;;;;;;;18.83;100.00;68867.88;4926629;29;20043;-76
2022/08/20 07:13:15;;;;;;;22.60;19.25;;;;;;;18.86;100.00;68865.34;4915947;29;20047;-76
2022/08/20 07:15:43;;;;;;;24.70;19.25;;;;;;;18.76;100.00;68854.50;4929345;28;20048;-76
2022/08/20 07:18:10;;;;;;;20.45;17.88;;;;;;;;;;4928048;29;20114;-76
2022/08/20 07:20:37;;;;;;;24.10;17.30;;;;;;;18.79;100.00;68852.53;4929083;29;20039;-76
2022/08/20 07:23:02;;;;;;;24.17;19.10;;;;;;;18.84;100.00;68869.03;4927591;29;20047;-76
2022/08/20 07:25:29;;;;;;;25.15;19.67;;;;;;;18.90;100.00;68869.91;4930119;29;20061;-76
2022/08/20 07:27:59;;;;;;;21.98;18.05;;;;;;;;;;4926066;29;20146;-77
2022/08/20 07:33:13;;;;;;;23.85;18.95;;;;;;;;;;4922700;29;20760;-75
2022/08/20 07:35:39;;;;;;;20.45;17.85;;;;;;;19.12;100.00;68892.34;4922077;29;20075;-76
2022/08/20 07:38:06;;;;;;;23.95;18.55;;;;;;;19.21;100.00;68898.78;4921550;29;20526;-77
2022/08/20 07:40:33;;;;;;;21.83;18.75;;;;;;;;;;4925697;29;20090;-76
2022/08/20 07:42:59;;;;;;;19.40;16.58;;;;;;;19.23;100.00;68911.88;4923467;29;20067;-77
2022/08/20 07:45:26;;;;;;;21.52;16.05;;;;;;;19.39;100.00;68922.63;4919968;29;20063;-76
2022/08/20 07:47:52;;;;;;;17.48;14.75;;;;;;;19.56;100.00;68943.59;4925828;29;20038;-77
2022/08/20 07:50:20;;;;;;;20.10;16.38;;;;;;;19.46;100.00;68932.75;4929575;29;20047;-77
2022/08/20 07:52:47;;;;;;;18.38;15.63;;;;;;;19.49;100.00;68944.28;4928210;29;20046;-77
2022/08/20 07:55:15;;;;;;;17.42;13.95;;;;;;;19.52;100.00;68939.59;4925930;29;20503;-76
2022/08/20 07:57:42;;;;;;;17.83;14.57;;;;;;;19.71;100.00;68960.19;4919697;29;20043;-76
2022/08/20 08:00:10;;;;;;;19.23;15.50;;;;;;;19.58;100.00;68943.19;4924679;28;20050;-76
2022/08/20 08:02:36;;;;;;;17.70;12.48;;;;;;;19.68;100.00;68957.34;4926913;28;20114;-77
2022/08/20 08:05:02;;;;;;;15.77;11.48;;;;;;;19.77;100.00;68967.63;4938212;29;20047;-77
2022/08/20 08:07:29;;;;;;;16.08;13.30;;;;;;;19.82;100.00;68978.16;4923379;29;20142;-77
2022/08/20 08:09:56;;;;;;;16.15;11.50;;;;;;;19.86;99.78;68974.06;4928466;28;20503;-76
2022/08/20 08:12:22;;;;;;;13.77;10.23;;;;;;;19.99;99.90;68992.19;4926619;29;20567;-76
2022/08/20 08:14:49;;;;;;;13.95;11.50;;;;;;;20.17;97.31;69009.50;4924948;29;20104;-77
2022/08/20 08:17:17;;;;;;;15.40;11.60;;;;;;;20.04;96.92;68997.34;4921749;29;20055;-76
2022/08/20 08:19:47;;;;;;;14.65;10.55;;;;;;;19.92;97.70;68978.22;4940952;29;20414;-77
2022/08/20 08:22:15;;;;;;;13.48;11.02;;;;;;;;;;4905447;29;20060;-77
2022/08/20 08:24:42;;;;;;;12.40;8.68;;;;;;;20.16;97.24;69008.34;4929460;29;20048;-77
2022/08/20 08:27:08;;;;;;;12.98;7.75;;;;;;;20.47;94.46;69043.22;4921307;29;20044;-76
2022/08/20 08:29:34;;;;;;;14.50;7.97;;;;;;;;;;4915816;28;20044;-77
2022/08/20 08:32:04;;;;;;;13.32;7.40;;;;;;;20.72;91.66;69070.72;4926512;29;20046;-76
2022/08/20 08:34:31;;;;;;;12.57;7.32;;;;;;;20.82;89.62;69079.44;4922185;29;20186;-77
2022/08/20 08:36:57;;;;;;;9.40;6.25;;;;;;;20.96;88.79;69098.16;4921685;29;20574;-77
2022/08/20 08:39:23;;;;;;;10.52;6.82;;;;;;;20.94;86.96;69095.28;4921653;29;20182;-77
2022/08/20 08:41:50;;;;;;;9.80;6.57;;;;;;;20.91;86.41;69089.72;4928742;29;20082;-77
2022/08/20 08:44:45;;;;;;;8.27;5.05;;;;;;;20.87;85.42;69090.00;4921549;28;20059;-77
2022/08/20 08:47:20;;;;;;;12.63;6.43;;;;;;;20.91;86.66;69095.13;4922915;29;20046;-76
2022/08/20 08:49:46;;;;;;;8.05;5.03;;;;;;;;;;4922548;28;20384;-76
2022/08/20 08:52:14;;;;;;;15.88;8.32;;;;;;;;;;4920623;29;20038;-77
2022/08/20 08:54:45;;;;;;;11.70;6.32;;;;;;;21.54;84.68;69165.50;4924563;29;20047;-77
2022/08/20 08:57:11;;;;;;;17.13;7.80;;;;;;;21.47;84.13;69156.94;4926696;29;20047;-77
2022/08/20 08:59:36;;;;;;;10.20;5.30;;;;;;;21.38;81.10;69147.78;4922925;29;20138;-76
2022/08/20 09:02:05;;;;;;;11.57;5.25;;;;;;;21.32;80.75;69138.19;4940122;28;20048;-76
2022/08/20 09:04:39;;;;;;;10.03;5.10;;;;;;;21.26;81.39;69128.63;4922689;29;20164;-76
2022/08/20 09:07:12;;;;;;;9.93;4.55;;;;;;;21.32;80.81;69140.91;4920567;29;20359;-77
2022/08/20 09:09:40;;;;;;;7.38;4.68;;;;;;;21.41;80.86;69150.66;4924470;28;20043;-77
2022/08/20 09:12:12;;;;;;;8.77;5.07;;;;;;;21.52;79.93;69168.66;4923584;29;20046;-77
2022/08/20 09:14:38;;;;;;;10.32;4.95;;;;;;;21.59;80.51;69171.25;4919393;29;20040;-77
2022/08/20 09:17:04;;;;;;;10.82;5.03;;;;;;;21.53;79.52;69164.38;4918885;28;20077;-77
2022/08/20 09:19:30;;;;;;;8.32;4.97;;;;;;;;;;4920084;29;20047;-77
2022/08/20 09:21:56;;;;;;;10.00;4.85;;;;;;;;;;4917448;29;20047;-77
2022/08/20 09:24:21;;;;;;;9.07;4.82;;;;;;;21.51;80.58;69156.09;4926949;28;20139;-77
2022/08/20 09:26:46;;;;;;;10.88;4.25;;;;;;;21.65;80.14;69177.53;4923937;29;20123;-77
2022/08/20 09:29:12;;;;;;;6.43;3.63;;;;;;;21.70;78.89;69177.84;4921602;29;20127;-77
2022/08/20 09:31:38;;;;;;;7.30;4.88;;;;;;;21.58;78.40;69170.09;4927322;28;20058;-77
2022/08/20 09:34:03;;;;;;;9.02;4.32;;;;;;;21.55;78.89;69163.38;4926785;29;20071;-77
2022/08/20 09:36:29;;;;;;;9.55;4.72;;;;;;;21.54;77.40;69162.25;4927182;28;20534;-77
2022/08/20 09:38:54;;;;;;;6.85;3.80;;;;;;;21.55;78.07;69166.09;4926320;28;20103;-77
2022/08/20 09:41:20;;;;;;;8.88;3.97;;;;;;;21.55;77.38;69163.38;4925951;28;20570;-77
2022/08/20 09:43:45;;;;;;;13.88;4.65;;;;;;;21.50;77.04;69160.38;4932419;28;20040;-77
2022/08/20 09:46:10;;;;;;;11.40;4.35;;;;;;;21.38;76.44;69147.78;4924162;28;20624;-77
2022/08/20 09:48:36;;;;;;;12.18;4.35;;;;;;;;;;4928611;29;20036;-77
2022/08/20 09:51:01;;;;;;;8.35;3.53;;;;;;;21.38;77.02;69147.22;4932887;29;20411;-77
2022/08/20 09:53:28;;;;;;;12.55;4.03;;;;;;;21.36;76.26;69142.78;4931019;29;20683;-77
2022/08/20 09:55:54;;;;;;;9.77;3.45;;;;;;;21.34;75.94;69143.19;4934320;28;20063;-78
2022/08/20 09:58:58;;;;;;;8.00;3.47;;;;;;;21.27;76.62;69134.63;4936192;29;20118;-77
2022/08/20 10:01:24;;;;;;;8.35;3.30;;;;;;;21.24;75.13;69126.34;4912538;29;20880;-77
2022/08/20 10:03:49;;;;;;;7.45;3.60;;;;;;;21.20;75.41;69124.44;4929912;28;20130;-77
2022/08/20 10:06:19;;;;;;;8.93;3.28;;;;;;;21.09;74.59;69114.56;4932067;29;20043;-78
2022/08/20 10:08:45;;;;;;;7.05;3.28;;;;;;;21.17;74.97;69121.03;4938335;29;20524;-77
2022/08/20 10:11:10;;;;;;;8.27;3.20;;;;;;;;;;4935574;29;20043;-77
2022/08/20 10:13:36;;;;;;;7.50;3.03;;;;;;;21.21;73.38;69125.59;4933971;28;20472;-77
2022/08/20 10:16:02;;;;;;;9.10;3.55;;;;;;;21.23;74.34;69130.59;4938288;28;20078;-78
2022/08/20 10:18:27;;;;;;;7.47;3.03;;;;;;;21.24;74.47;69131.75;4925617;29;21516;-78
2022/08/20 10:20:52;;;;;;;8.73;3.40;;;;;;;21.25;74.39;69132.88;4932906;28;20086;-77
2022/08/20 10:23:18;;;;;;;10.38;4.15;;;;;;;21.29;74.97;69137.47;4934042;28;20067;-78
2022/08/20 10:25:43;;;;;;;9.40;3.90;;;;;;;21.36;76.08;69139.50;4931892;29;20104;-77
2022/08/20 10:28:08;;;;;;;9.27;3.88;;;;;;;;;;4936096;29;20503;-77
2022/08/20 10:30:34;;;;;;;9.45;4.10;;;;;;;21.33;75.82;69146.88;4934445;29;20063;-77
2022/08/20 10:32:59;;;;;;;10.38;4.43;;;;;;;21.38;75.06;69147.22;4934833;29;20058;-77
2022/08/20 10:35:25;;;;;;;10.20;4.18;;;;;;;21.42;75.48;69151.22;4932727;29;20488;-77
2022/08/20 10:37:50;;;;;;;9.85;4.45;;;;;;;21.37;75.56;69146.06;4935736;29;20068;-77
2022/08/20 10:40:16;;;;;;;9.20;4.53;;;;;;;21.35;75.97;69143.78;4935076;29;20059;-77
2022/08/20 10:42:42;;;;;;;8.98;4.43;;;;;;;21.46;75.23;69156.34;4931467;29;20102;-78
2022/08/20 10:45:10;;;;;;;8.27;4.75;;;;;;;21.36;75.15;69145.50;4940297;29;20757;-77
2022/08/20 10:47:35;;;;;;;10.23;4.55;;;;;;;21.39;74.73;69154.34;4941845;29;20047;-78
2022/08/20 10:50:04;;;;;;;10.80;5.22;;;;;;;21.39;75.03;69148.94;4934353;29;20045;-78
2022/08/20 10:52:29;;;;;;;8.93;5.05;;;;;;;;;;4936659;29;20040;-78
2022/08/20 10:54:55;;;;;;;6.03;4.33;;;;;;;21.63;74.37;69172.53;4929730;29;20040;-78
2022/08/20 10:57:25;;;;;;;9.40;4.47;;;;;;;21.63;74.29;69172.53;4930521;29;20275;-77
2022/08/20 10:59:53;;;;;;;8.60;4.90;;;;;;;21.71;74.93;69181.69;4928337;29;20075;-77
2022/08/20 11:02:20;;;;;;;9.70;4.72;;;;;;;22.13;74.36;69231.34;4925512;29;20044;-77
2022/08/20 11:04:45;;;;;;;9.07;5.13;;;;;;;22.38;71.39;69253.41;4930888;29;20533;-77
2022/08/20 11:07:14;;;;;;;10.55;4.88;;;;;;;22.33;73.17;69250.38;4924893;28;20044;-78
2022/08/20 11:09:39;;;;;;;9.05;4.85;;;;;;;22.43;71.36;69262.41;4931635;28;20070;-77
2022/08/20 11:12:05;;;;;;;10.93;4.35;;;;;;;22.48;72.42;69270.88;4920716;28;20130;-77
2022/08/20 11:14:30;;;;;;;9.27;3.97;;;;;;;22.93;69.39;69315.25;4944544;29;20175;-77
2022/08/20 11:16:56;;;;;;;7.03;4.10;;;;;;;22.78;67.86;69298.63;4925157;29;20043;-77
2022/08/20 11:19:21;;;;;;;6.22;3.20;;;;;;;22.72;67.26;69297.19;4929662;29;20047;-77
2022/08/20 11:21:47;;;;;;;7.22;2.80;;;;;;;23.03;65.41;69328.88;4929331;29;20048;-78
2022/08/20 11:24:12;;;;;;;7.05;2.60;;;;;;;22.99;63.97;69327.59;4928229;29;20048;-77
2022/08/20 11:26:37;;;;;;;5.80;1.92;;;;;;;23.07;63.47;69334.03;4921295;29;20036;-77
2022/08/20 11:29:03;;;;;;;8.75;2.35;;;;;;;23.09;62.23;69338.47;4929135;29;20119;-77
2022/08/20 11:31:28;;;;;;;7.28;2.35;;;;;;;23.18;62.75;69346.06;4929210;29;20048;-77
2022/08/20 11:33:53;;;;;;;7.82;2.47;;;;;;;23.31;59.69;69357.69;4924272;29;20067;-77
2022/08/20 11:36:19;;;;;;;8.52;2.38;;;;;;;23.34;57.61;69363.81;4917871;29;20055;-77
2022/08/20 11:38:44;;;;;;;5.53;1.63;;;;;;;23.34;55.49;69363.81;4915393;29;20119;-77
2022/08/20 11:41:10;;;;;;;9.77;2.15;;;;;;;23.71;56.75;69399.66;4913997;29;20126;-77
2022/08/20 11:43:35;;;;;;;6.63;2.45;;;;;;;;;;4924759;29;20116;-77
2022/08/20 11:46:00;;;;;;;8.10;2.20;;;;;;;24.15;54.74;69454.97;4928156;29;20075;-77
2022/08/20 11:48:26;;;;;;;5.97;2.08;;;;;;;23.95;54.43;69434.75;4928684;29;20879;-78
2022/08/20 11:50:51;;;;;;;9.10;2.30;;;;;;;23.86;55.46;69419.56;4928299;29;20028;-77
2022/08/20 11:53:16;;;;;;;11.45;2.60;;;;;;;23.82;55.48;69418.28;4924386;29;20119;-77
2022/08/20 11:55:42;;;;;;;4.88;1.85;;;;;;;24.00;55.39;69437.78;4926006;29;20039;-77
2022/08/20 11:58:08;;;;;;;5.85;2.30;;;;;;;23.83;54.89;69418.84;4923339;29;20055;-77